Аэропорт: Курск-Восточный . Курск

ICAO: UUOK

METAR:
2021-04-21 21:00:00
UUOK 212100Z AUTO 22002MPS 180V250 9999 // 04/02 Q1015 RMK QFE742/0990
METAR:
Информация по данной станции не доступна